createdAt,value
2022-11-12T00:00:12.180Z,154.00
2022-11-12T00:01:12.487Z,166.10
2022-11-12T00:02:12.709Z,149.10
2022-11-12T00:03:13.097Z,147.10
2022-11-12T00:04:13.440Z,150.30
2022-11-12T00:05:13.725Z,155.00
2022-11-12T00:06:14.021Z,162.30
2022-11-12T00:07:14.431Z,163.20
2022-11-12T00:08:14.641Z,200.70
2022-11-12T00:09:14.925Z,197.60
2022-11-12T00:10:15.010Z,216.00
2022-11-12T00:11:15.367Z,157.00
2022-11-12T00:12:15.724Z,146.00
2022-11-12T00:13:16.017Z,138.80
2022-11-12T00:14:16.301Z,154.50
2022-11-12T00:15:16.745Z,163.50
2022-11-12T00:16:16.853Z,154.10
2022-11-12T00:17:17.192Z,165.20
2022-11-12T00:18:17.495Z,141.60
2022-11-12T00:19:17.789Z,152.90
2022-11-12T00:20:18.143Z,186.10
2022-11-12T00:21:18.413Z,169.40
2022-11-12T00:22:18.833Z,209.40
2022-11-12T00:23:18.967Z,152.90
2022-11-12T00:24:19.310Z,153.20
2022-11-12T00:25:19.653Z,160.00
2022-11-12T00:26:19.912Z,151.70
2022-11-12T00:27:20.240Z,149.20
2022-11-12T00:28:20.615Z,137.80
2022-11-12T00:29:20.900Z,142.80
2022-11-12T00:30:21.123Z,149.50
2022-11-12T00:31:21.391Z,139.80
2022-11-12T00:32:21.645Z,129.20
2022-11-12T00:33:22.024Z,204.30
2022-11-12T00:34:22.240Z,163.00
2022-11-12T00:35:22.962Z,142.90
2022-11-12T00:36:22.850Z,137.00
2022-11-12T00:37:23.212Z,147.80
2022-11-12T00:38:23.855Z,163.00
2022-11-12T00:39:23.681Z,177.70
2022-11-12T00:40:24.122Z,167.80
2022-11-12T00:41:24.343Z,145.80
2022-11-12T00:42:24.703Z,163.00
2022-11-12T00:43:24.876Z,144.70
2022-11-12T00:44:25.241Z,148.40
2022-11-12T00:45:25.485Z,140.20
2022-11-12T00:46:25.923Z,145.20
2022-11-12T00:47:26.240Z,162.50
2022-11-12T00:48:26.858Z,167.80
2022-11-12T00:49:26.718Z,154.10
2022-11-12T00:50:27.030Z,155.40
2022-11-12T00:51:27.268Z,200.10
2022-11-12T00:52:27.529Z,171.50
2022-11-12T00:53:27.829Z,160.50
2022-11-12T00:54:27.969Z,153.20
2022-11-12T00:55:28.349Z,171.80
2022-11-12T00:56:33.011Z,137.60
2022-11-12T00:57:29.974Z,159.10
2022-11-12T00:58:29.055Z,135.90
2022-11-12T00:59:29.321Z,147.60
2022-11-12T01:00:29.645Z,135.90
2022-11-12T01:01:29.938Z,135.70
2022-11-12T01:02:30.171Z,137.10
2022-11-12T01:03:30.447Z,134.20
2022-11-12T01:04:30.820Z,134.50
2022-11-12T01:05:30.905Z,112.10
2022-11-12T01:06:31.138Z,129.10
2022-11-12T01:07:31.590Z,130.20
2022-11-12T01:08:31.806Z,122.70
2022-11-12T01:09:32.038Z,120.20
2022-11-12T01:10:32.394Z,114.90
2022-11-12T01:11:32.610Z,123.00
2022-11-12T01:12:33.059Z,126.50
2022-11-12T01:13:33.240Z,112.40
2022-11-12T01:14:33.478Z,109.00
2022-11-12T01:15:33.777Z,110.20
2022-11-12T01:16:34.138Z,106.40
2022-11-12T01:17:34.432Z,112.60
2022-11-12T01:18:34.640Z,103.80
2022-11-12T01:19:34.911Z,108.70
2022-11-12T01:20:35.087Z,104.40
2022-11-12T01:21:35.425Z,104.30
2022-11-12T01:22:35.752Z,101.20
2022-11-12T01:23:36.070Z,104.30
2022-11-12T01:24:36.402Z,96.60
2022-11-12T01:25:36.705Z,101.00
2022-11-12T01:26:37.034Z,105.10
2022-11-12T01:27:37.227Z,93.70
2022-11-12T01:28:37.601Z,98.00
2022-11-12T01:29:37.783Z,89.90
2022-11-12T01:30:38.075Z,103.70
2022-11-12T01:31:38.331Z,104.20
2022-11-12T01:32:38.645Z,91.70
2022-11-12T01:33:39.032Z,92.50
2022-11-12T01:34:39.253Z,93.50
2022-11-12T01:35:39.445Z,95.90
2022-11-12T01:36:39.934Z,97.70
2022-11-12T01:37:40.016Z,88.80
2022-11-12T01:38:40.349Z,84.20
2022-11-12T01:39:40.666Z,85.30
2022-11-12T01:40:41.028Z,93.00
2022-11-12T01:41:41.227Z,80.90
2022-11-12T01:42:41.554Z,86.10
2022-11-12T01:43:41.790Z,86.60
2022-11-12T01:44:42.133Z,84.30
2022-11-12T01:45:42.443Z,84.80
2022-11-12T01:46:42.874Z,80.50
2022-11-12T01:47:43.018Z,82.40
2022-11-12T01:48:43.362Z,81.80
2022-11-12T01:49:48.738Z,80.40
2022-11-12T01:50:44.888Z,74.50
2022-11-12T01:51:44.195Z,84.00
2022-11-12T01:52:44.505Z,70.80
2022-11-12T01:53:44.810Z,83.70
2022-11-12T01:54:45.529Z,78.00
2022-11-12T01:55:45.462Z,79.60
2022-11-12T01:56:45.604Z,96.50
2022-11-12T01:57:45.900Z,87.70
2022-11-12T01:58:46.210Z,101.50
2022-11-12T01:59:46.522Z,85.90
2022-11-12T02:00:46.881Z,92.50
2022-11-12T02:01:47.145Z,90.90
2022-11-12T02:02:47.342Z,86.10
2022-11-12T02:03:47.703Z,94.10
2022-11-12T02:04:47.981Z,102.00
2022-11-12T02:05:48.200Z,92.30
2022-11-12T02:06:48.577Z,71.80
2022-11-12T02:07:48.793Z,90.00
2022-11-12T02:08:49.091Z,71.70
2022-11-12T02:09:49.478Z,73.60
2022-11-12T02:10:49.686Z,73.50
2022-11-12T02:11:49.920Z,89.20
2022-11-12T02:12:50.222Z,89.40
2022-11-12T02:13:50.559Z,97.60
2022-11-12T02:14:50.742Z,89.60
2022-11-12T02:15:51.110Z,94.20
2022-11-12T02:16:51.416Z,81.20
2022-11-12T02:17:51.733Z,81.80
2022-11-12T02:18:52.015Z,79.60
2022-11-12T02:19:52.301Z,86.90
2022-11-12T02:20:52.617Z,85.20
2022-11-12T02:21:52.933Z,93.10
2022-11-12T02:22:53.260Z,93.70
2022-11-12T02:23:53.542Z,108.70
2022-11-12T02:24:53.894Z,72.30
2022-11-12T02:25:54.193Z,85.20
2022-11-12T02:26:54.519Z,78.10
2022-11-12T02:27:54.823Z,75.20
2022-11-12T02:28:55.104Z,106.00
2022-11-12T02:29:55.398Z,119.60
2022-11-12T02:30:55.596Z,87.50
2022-11-12T02:31:55.911Z,96.70
2022-11-12T02:32:56.225Z,91.20
2022-11-12T02:33:56.586Z,91.10
2022-11-12T02:34:56.951Z,80.00
2022-11-12T02:35:57.138Z,78.40
2022-11-12T02:36:57.509Z,98.20
2022-11-12T02:37:57.821Z,96.70
2022-11-12T02:38:58.168Z,76.80
2022-11-12T02:39:58.472Z,82.20
2022-11-12T02:40:58.768Z,77.20
2022-11-12T02:41:59.081Z,70.00
2022-11-12T02:42:59.369Z,72.20
2022-11-12T02:43:59.736Z,72.30
2022-11-12T02:45:00.049Z,68.70
2022-11-12T02:46:00.407Z,72.00
2022-11-12T02:47:00.617Z,75.30
2022-11-12T02:48:01.011Z,74.30
2022-11-12T02:49:01.181Z,114.20
2022-11-12T02:50:01.440Z,87.50
2022-11-12T02:51:01.799Z,86.50
2022-11-12T02:52:02.009Z,88.70
2022-11-12T02:53:02.366Z,83.00
2022-11-12T02:54:02.542Z,82.50
2022-11-12T02:55:02.844Z,95.70
2022-11-12T02:56:03.161Z,75.50
2022-11-12T02:57:03.461Z,72.10
2022-11-12T02:58:03.764Z,88.20
2022-11-12T02:59:04.112Z,88.00
2022-11-12T03:00:04.475Z,67.10
2022-11-12T03:01:04.682Z,72.00
2022-11-12T03:02:04.931Z,74.50
2022-11-12T03:03:05.264Z,72.00
2022-11-12T03:04:05.596Z,83.30
2022-11-12T03:05:05.869Z,70.90
2022-11-12T03:06:06.154Z,90.80
2022-11-12T03:07:06.543Z,93.50
2022-11-12T03:08:06.829Z,100.10
2022-11-12T03:09:07.099Z,81.30
2022-11-12T03:10:07.430Z,79.40
2022-11-12T03:11:08.106Z,84.50
2022-11-12T03:12:07.945Z,69.30
2022-11-12T03:13:08.305Z,64.00
2022-11-12T03:14:08.624Z,107.60
2022-11-12T03:15:08.941Z,99.20
2022-11-12T03:16:09.393Z,70.20
2022-11-12T03:17:09.613Z,120.30
2022-11-12T03:18:09.989Z,94.30
2022-11-12T03:19:10.195Z,101.50
2022-11-12T03:20:10.441Z,100.00
2022-11-12T03:21:10.759Z,100.30
2022-11-12T03:22:11.080Z,114.90
2022-11-12T03:23:11.372Z,108.80
2022-11-12T03:24:11.735Z,92.70
2022-11-12T03:25:12.019Z,87.40
2022-11-12T03:26:12.326Z,86.70
2022-11-12T03:27:12.665Z,89.80
2022-11-12T03:28:13.010Z,92.90
2022-11-12T03:29:13.317Z,106.30
2022-11-12T03:30:13.696Z,86.10
2022-11-12T03:31:13.868Z,81.40
2022-11-12T03:32:14.237Z,77.10
2022-11-12T03:33:14.598Z,79.70
2022-11-12T03:34:14.850Z,92.40
2022-11-12T03:35:15.219Z,87.50
2022-11-12T03:36:15.451Z,87.60
2022-11-12T03:37:15.614Z,69.80
2022-11-12T03:38:15.971Z,70.50
2022-11-12T03:39:16.297Z,63.30
2022-11-12T03:40:16.593Z,70.50
2022-11-12T03:41:16.922Z,66.20
2022-11-12T03:42:17.200Z,102.30
2022-11-12T03:43:17.542Z,65.00
2022-11-12T03:44:17.893Z,76.10
2022-11-12T03:45:18.134Z,57.80
2022-11-12T03:46:18.526Z,52.00
2022-11-12T03:47:18.787Z,58.80
2022-11-12T03:48:18.996Z,57.00
2022-11-12T03:49:19.273Z,61.50
2022-11-12T03:50:19.627Z,67.30
2022-11-12T03:51:19.934Z,74.90
2022-11-12T03:52:20.308Z,61.50
2022-11-12T03:53:20.474Z,66.40
2022-11-12T03:54:20.820Z,66.70
2022-11-12T03:55:21.134Z,54.60
2022-11-12T03:56:21.479Z,48.70
2022-11-12T03:57:21.785Z,53.60
2022-11-12T03:58:22.032Z,50.80
2022-11-12T03:59:22.324Z,53.20
2022-11-12T04:00:22.546Z,66.00
2022-11-12T04:01:22.892Z,66.90
2022-11-12T04:02:23.159Z,60.10
2022-11-12T04:03:23.348Z,49.80
2022-11-12T04:04:23.653Z,53.20
2022-11-12T04:05:23.949Z,59.40
2022-11-12T04:06:24.305Z,50.90
2022-11-12T04:07:24.586Z,46.60
2022-11-12T04:08:25.273Z,46.80
2022-11-12T04:09:25.201Z,57.00
2022-11-12T04:10:25.535Z,45.60
2022-11-12T04:11:25.746Z,47.20
2022-11-12T04:12:26.105Z,45.30
2022-11-12T04:13:26.307Z,52.30
2022-11-12T04:14:26.601Z,52.40
2022-11-12T04:15:27.017Z,49.70
2022-11-12T04:16:27.208Z,45.30
2022-11-12T04:17:27.516Z,45.90
2022-11-12T04:18:28.177Z,41.90
2022-11-12T04:19:28.189Z,37.20
2022-11-12T04:20:28.404Z,43.70
2022-11-12T04:21:28.776Z,41.80
2022-11-12T04:22:29.119Z,43.10
2022-11-12T04:23:29.394Z,51.30
2022-11-12T04:24:29.744Z,37.60
2022-11-12T04:25:30.029Z,35.40
2022-11-12T04:26:30.429Z,40.60
2022-11-12T04:27:30.609Z,43.00
2022-11-12T04:28:30.910Z,42.20
2022-11-12T04:29:36.340Z,37.50
2022-11-12T04:30:32.504Z,38.10
2022-11-12T04:31:31.857Z,38.40
2022-11-12T04:32:32.169Z,36.90
2022-11-12T04:33:32.497Z,40.60
2022-11-12T04:34:32.845Z,35.60
2022-11-12T04:35:33.145Z,34.90
2022-11-12T04:36:33.486Z,37.00
2022-11-12T04:37:33.773Z,31.20
2022-11-12T04:38:34.105Z,38.50
2022-11-12T04:39:34.397Z,39.80
2022-11-12T04:40:34.732Z,35.10
2022-11-12T04:41:35.138Z,30.00
2022-11-12T04:42:35.420Z,32.60
2022-11-12T04:43:35.763Z,35.90
2022-11-12T04:44:35.969Z,32.60
2022-11-12T04:45:36.334Z,43.00
2022-11-12T04:46:36.592Z,30.30
2022-11-12T04:47:36.963Z,33.40
2022-11-12T04:48:37.398Z,28.80
2022-11-12T04:49:37.612Z,29.20
2022-11-12T04:50:37.836Z,27.90
2022-11-12T04:51:38.176Z,29.40
2022-11-12T04:52:38.464Z,28.20
2022-11-12T04:53:38.837Z,26.70
2022-11-12T04:54:39.105Z,26.50
2022-11-12T04:55:39.302Z,27.30
2022-11-12T04:56:39.637Z,26.20
2022-11-12T04:57:39.975Z,24.80
2022-11-12T04:58:40.345Z,28.00
2022-11-12T04:59:41.511Z,28.50
2022-11-12T05:00:40.813Z,28.80
2022-11-12T05:01:41.320Z,34.90
2022-11-12T05:02:41.505Z,27.60
2022-11-12T05:03:41.819Z,26.70
2022-11-12T05:04:42.157Z,24.40
2022-11-12T05:05:42.447Z,26.90
2022-11-12T05:06:42.836Z,28.20
2022-11-12T05:07:43.014Z,35.70
2022-11-12T05:08:43.267Z,31.10
2022-11-12T05:09:43.606Z,32.70
2022-11-12T05:10:43.900Z,36.00
2022-11-12T05:11:44.289Z,38.60
2022-11-12T05:12:44.537Z,29.50
2022-11-12T05:13:44.848Z,30.10
2022-11-12T05:14:45.264Z,26.60
2022-11-12T05:15:45.499Z,28.30
2022-11-12T05:16:45.803Z,31.20
2022-11-12T05:17:46.136Z,31.30
2022-11-12T05:18:46.427Z,35.10
2022-11-12T05:19:46.745Z,34.00
2022-11-12T05:20:47.078Z,38.30
2022-11-12T05:21:47.379Z,34.20
2022-11-12T05:23:04.508Z,54.40
2022-11-12T05:23:48.993Z,57.80
2022-11-12T05:24:48.316Z,64.20
2022-11-12T05:25:48.665Z,70.90
2022-11-12T05:26:48.917Z,40.80
2022-11-12T05:27:49.244Z,48.00
2022-11-12T05:28:49.581Z,45.70
2022-11-12T05:29:49.884Z,58.50
2022-11-12T05:30:50.188Z,85.10
2022-11-12T05:31:50.416Z,43.10
2022-11-12T05:32:50.771Z,44.30
2022-11-12T05:33:51.123Z,46.40
2022-11-12T05:34:51.423Z,62.00
2022-11-12T05:35:51.731Z,47.20
2022-11-12T05:36:52.028Z,41.60
2022-11-12T05:37:52.360Z,40.70
2022-11-12T05:38:52.664Z,42.80
2022-11-12T05:39:52.903Z,38.70
2022-11-12T05:40:53.270Z,39.10
2022-11-12T05:42:12.026Z,37.20
2022-11-12T05:42:54.877Z,48.40
2022-11-12T05:43:54.192Z,51.50
2022-11-12T05:44:54.638Z,50.30
2022-11-12T05:45:54.935Z,44.80
2022-11-12T05:46:55.106Z,44.90
2022-11-12T05:47:55.404Z,43.80
2022-11-12T05:48:55.577Z,53.00
2022-11-12T05:49:55.936Z,46.60
2022-11-12T05:51:12.600Z,44.10
2022-11-12T05:51:57.542Z,48.20
2022-11-12T05:52:56.854Z,50.20
2022-11-12T05:53:57.176Z,36.80
2022-11-12T05:54:57.548Z,64.60
2022-11-12T05:55:57.871Z,42.60
2022-11-12T05:56:58.200Z,54.60
2022-11-12T05:57:58.495Z,53.40
2022-11-12T05:58:58.707Z,44.40
2022-11-12T05:59:58.978Z,48.30
2022-11-12T06:00:59.665Z,47.30
2022-11-12T06:01:59.624Z,41.10
2022-11-12T06:02:59.883Z,40.80
2022-11-12T06:04:00.051Z,47.00
2022-11-12T06:05:00.381Z,43.90
2022-11-12T06:06:00.769Z,40.10
2022-11-12T06:07:01.070Z,37.90
2022-11-12T06:08:01.279Z,36.20
2022-11-12T06:09:01.507Z,39.40
2022-11-12T06:10:01.792Z,37.60
2022-11-12T06:11:02.079Z,46.00
2022-11-12T06:12:02.341Z,33.70
2022-11-12T06:13:02.683Z,35.50
2022-11-12T06:14:03.017Z,36.20
2022-11-12T06:15:03.249Z,45.90
2022-11-12T06:16:03.473Z,61.40
2022-11-12T06:17:03.882Z,43.50
2022-11-12T06:18:04.117Z,48.20
2022-11-12T06:19:04.500Z,45.90
2022-11-12T06:20:04.679Z,40.00
2022-11-12T06:21:05.037Z,38.60
2022-11-12T06:22:05.320Z,41.40
2022-11-12T06:23:05.512Z,50.10
2022-11-12T06:24:05.772Z,53.30
2022-11-12T06:25:05.996Z,56.90
2022-11-12T06:26:06.346Z,41.10
2022-11-12T06:27:06.617Z,44.30
2022-11-12T06:28:06.963Z,46.10
2022-11-12T06:29:07.167Z,51.90
2022-11-12T06:30:07.402Z,84.70
2022-11-12T06:31:07.642Z,55.00
2022-11-12T06:32:07.915Z,52.50
2022-11-12T06:33:08.149Z,60.60
2022-11-12T06:34:08.361Z,42.40
2022-11-12T06:35:08.666Z,53.80
2022-11-12T06:36:13.389Z,52.30
2022-11-12T06:37:09.947Z,50.00
2022-11-12T06:38:11.357Z,44.70
2022-11-12T06:39:09.724Z,55.20
2022-11-12T06:40:09.973Z,65.30
2022-11-12T06:41:10.206Z,71.50
2022-11-12T06:42:10.666Z,82.10
2022-11-12T06:43:10.809Z,47.20
2022-11-12T06:44:12.140Z,43.40
2022-11-12T06:45:11.316Z,51.20
2022-11-12T06:46:11.556Z,132.30
2022-11-12T06:47:11.865Z,73.70
2022-11-12T06:48:12.074Z,59.70
2022-11-12T06:49:12.359Z,82.00
2022-11-12T06:50:13.046Z,107.60
2022-11-12T06:51:12.860Z,64.00
2022-11-12T06:52:16.548Z,67.50
2022-11-12T06:53:13.486Z,54.90
2022-11-12T06:54:13.730Z,59.30
2022-11-12T06:55:13.960Z,87.00
2022-11-12T06:56:14.233Z,56.50
2022-11-12T06:57:14.440Z,66.00
2022-11-12T06:58:14.709Z,87.40
2022-11-12T06:59:14.954Z,72.10
2022-11-12T07:00:15.266Z,38.60
2022-11-12T07:01:15.519Z,70.80
2022-11-12T07:02:15.736Z,82.20
2022-11-12T07:03:16.003Z,77.40
2022-11-12T07:04:23.197Z,69.40
2022-11-12T07:05:16.599Z,55.30
2022-11-12T07:06:16.840Z,67.80
2022-11-12T07:07:19.893Z,70.40
2022-11-12T07:08:17.369Z,47.50
2022-11-12T07:09:17.717Z,63.70
2022-11-12T07:10:17.872Z,53.60
2022-11-12T07:11:18.114Z,58.30
2022-11-12T07:12:18.370Z,51.00
2022-11-12T07:13:18.759Z,54.30
2022-11-12T07:14:18.834Z,39.90
2022-11-12T07:15:19.082Z,56.80
2022-11-12T07:16:19.324Z,58.20
2022-11-12T07:17:19.584Z,67.60
2022-11-12T07:18:19.859Z,66.60
2022-11-12T07:19:20.086Z,106.50
2022-11-12T07:20:20.417Z,60.20
2022-11-12T07:21:20.729Z,54.40
2022-11-12T07:22:21.422Z,66.40
2022-11-12T07:23:22.401Z,58.10
2022-11-12T07:24:21.488Z,59.90
2022-11-12T07:25:22.043Z,52.60
2022-11-12T07:26:22.060Z,44.40
2022-11-12T07:27:22.315Z,60.90
2022-11-12T07:28:22.616Z,51.60
2022-11-12T07:29:42.785Z,70.60
2022-11-12T07:30:24.159Z,92.30
2022-11-12T07:31:23.804Z,69.70
2022-11-12T07:32:23.753Z,58.80
2022-11-12T07:33:23.985Z,44.60
2022-11-12T07:34:24.249Z,63.80
2022-11-12T07:35:24.483Z,61.80
2022-11-12T07:36:24.755Z,82.60
2022-11-12T07:37:25.027Z,58.60
2022-11-12T07:38:25.648Z,50.90
2022-11-12T07:39:25.882Z,48.50
2022-11-12T07:40:25.796Z,74.00
2022-11-12T07:41:26.138Z,132.60
2022-11-12T07:42:26.299Z,60.10
2022-11-12T07:43:26.545Z,60.80
2022-11-12T07:44:26.793Z,51.30
2022-11-12T07:45:27.157Z,46.20
2022-11-12T07:46:27.348Z,49.50
2022-11-12T07:47:27.617Z,53.80
2022-11-12T07:48:28.092Z,113.70
2022-11-12T07:49:28.909Z,79.90
2022-11-12T07:50:28.440Z,57.80
2022-11-12T07:51:28.705Z,56.10
2022-11-12T07:52:29.001Z,66.30
2022-11-12T07:53:29.278Z,118.80
2022-11-12T07:54:29.655Z,66.70
2022-11-12T07:55:30.293Z,77.70
2022-11-12T07:56:30.139Z,64.80
2022-11-12T07:57:30.376Z,59.00
2022-11-12T07:58:30.660Z,70.30
2022-11-12T07:59:30.947Z,98.00
2022-11-12T08:00:31.181Z,65.40
2022-11-12T08:01:31.564Z,91.70
2022-11-12T08:02:31.753Z,62.30
2022-11-12T08:03:31.994Z,83.20
2022-11-12T08:04:32.246Z,96.90
2022-11-12T08:05:32.497Z,75.80
2022-11-12T08:06:32.772Z,101.50
2022-11-12T08:07:33.235Z,73.50
2022-11-12T08:08:33.314Z,72.50
2022-11-12T08:09:33.590Z,62.30
2022-11-12T08:10:33.881Z,94.00
2022-11-12T08:11:34.134Z,75.80
2022-11-12T08:12:34.389Z,73.70
2022-11-12T08:13:34.709Z,90.50
2022-11-12T08:14:34.953Z,71.80
2022-11-12T08:15:35.202Z,73.10
2022-11-12T08:16:35.469Z,61.60
2022-11-12T08:17:35.710Z,60.90
2022-11-12T08:18:35.962Z,60.50
2022-11-12T08:19:36.268Z,60.90
2022-11-12T08:20:36.524Z,58.10
2022-11-12T08:21:36.760Z,70.40
2022-11-12T08:22:37.044Z,61.00
2022-11-12T08:23:37.322Z,99.00
2022-11-12T08:24:37.613Z,72.70
2022-11-12T08:25:37.899Z,76.30
2022-11-12T08:26:38.170Z,70.40
2022-11-12T08:27:38.470Z,69.80
2022-11-12T08:28:38.756Z,68.90
2022-11-12T08:29:39.317Z,57.90
2022-11-12T08:30:39.326Z,61.00
2022-11-12T08:31:39.579Z,71.70
2022-11-12T08:32:39.851Z,66.80
2022-11-12T08:33:40.101Z,58.30
2022-11-12T08:34:40.342Z,70.00
2022-11-12T08:35:40.573Z,91.20
2022-11-12T08:36:40.950Z,51.60
2022-11-12T08:37:41.160Z,48.90
2022-11-12T08:38:41.425Z,45.80
2022-11-12T08:39:41.777Z,56.40
2022-11-12T08:40:41.992Z,61.20
2022-11-12T08:41:42.267Z,59.00
2022-11-12T08:42:42.512Z,61.20
2022-11-12T08:43:42.774Z,57.10
2022-11-12T08:44:43.021Z,55.00
2022-11-12T08:45:43.281Z,55.70
2022-11-12T08:46:43.542Z,99.60
2022-11-12T08:47:44.220Z,70.00
2022-11-12T08:48:44.126Z,81.40
2022-11-12T08:49:48.073Z,84.90
2022-11-12T08:50:44.712Z,100.10
2022-11-12T08:51:45.020Z,55.30
2022-11-12T08:52:45.269Z,55.30
2022-11-12T08:53:45.582Z,57.60
2022-11-12T08:54:45.793Z,53.70
2022-11-12T08:55:46.103Z,74.60
2022-11-12T08:56:46.345Z,49.40
2022-11-12T08:57:46.622Z,52.30
2022-11-12T08:58:46.858Z,41.10
2022-11-12T08:59:47.141Z,46.10
2022-11-12T09:00:47.486Z,45.80
2022-11-12T09:01:47.794Z,49.10
2022-11-12T09:02:47.986Z,49.70
2022-11-12T09:03:48.722Z,38.80
2022-11-12T09:04:48.543Z,49.20
2022-11-12T09:05:48.832Z,48.60
2022-11-12T09:06:53.732Z,89.00
2022-11-12T09:07:51.139Z,94.80
2022-11-12T09:08:49.661Z,159.50
2022-11-12T09:09:49.939Z,120.10
2022-11-12T09:10:50.189Z,111.60
2022-11-12T09:11:50.447Z,169.10
2022-11-12T09:12:50.765Z,119.00
2022-11-12T09:13:51.147Z,111.50
2022-11-12T09:14:53.439Z,91.40
2022-11-12T09:15:51.614Z,100.80
2022-11-12T09:16:51.898Z,84.70
2022-11-12T09:17:52.127Z,75.90
2022-11-12T09:18:52.828Z,110.00
2022-11-12T09:19:52.713Z,93.00
2022-11-12T09:20:52.948Z,160.60
2022-11-12T09:21:54.049Z,130.30
2022-11-12T09:22:53.516Z,75.60
2022-11-12T09:23:53.754Z,94.10
2022-11-12T09:24:54.002Z,123.40
2022-11-12T09:25:54.289Z,150.00
2022-11-12T09:26:54.625Z,79.60
2022-11-12T09:27:54.842Z,106.80
2022-11-12T09:28:55.120Z,92.20
2022-11-12T09:29:55.380Z,92.90
2022-11-12T09:30:55.627Z,77.00
2022-11-12T09:31:55.915Z,162.70
2022-11-12T09:32:56.191Z,86.60
2022-11-12T09:33:56.456Z,74.10
2022-11-12T09:34:56.697Z,81.40
2022-11-12T09:35:56.943Z,67.50
2022-11-12T09:36:57.206Z,69.50
2022-11-12T09:37:57.499Z,65.50
2022-11-12T09:38:57.773Z,69.80
2022-11-12T09:39:58.042Z,62.60
2022-11-12T09:40:58.347Z,58.00
2022-11-12T09:42:01.954Z,66.60
2022-11-12T09:42:58.905Z,72.60
2022-11-12T09:43:59.145Z,68.10
2022-11-12T09:44:59.364Z,83.00
2022-11-12T09:46:26.159Z,49.50
2022-11-12T09:47:01.323Z,49.30
2022-11-12T09:48:00.134Z,48.20
2022-11-12T09:49:00.409Z,66.70
2022-11-12T09:50:00.760Z,46.80
2022-11-12T09:51:01.014Z,47.40
2022-11-12T09:52:01.248Z,47.80
2022-11-12T09:53:01.526Z,44.50
2022-11-12T09:54:01.789Z,39.60
2022-11-12T09:55:02.060Z,35.70
2022-11-12T09:56:02.381Z,36.40
2022-11-12T09:57:02.720Z,42.10
2022-11-12T09:58:02.958Z,39.90
2022-11-12T09:59:03.258Z,39.00
2022-11-12T10:00:03.461Z,37.60
2022-11-12T10:01:03.780Z,37.20
2022-11-12T10:02:04.142Z,41.60
2022-11-12T10:03:04.285Z,38.60
2022-11-12T10:04:04.602Z,39.50
2022-11-12T10:05:04.832Z,35.00
2022-11-12T10:06:10.242Z,36.80
2022-11-12T10:07:06.439Z,36.40
2022-11-12T10:08:05.615Z,37.10
2022-11-12T10:09:05.895Z,35.60
2022-11-12T10:10:06.199Z,33.30
2022-11-12T10:11:06.524Z,36.40
2022-11-12T10:12:06.712Z,33.70
2022-11-12T10:13:06.970Z,41.20
2022-11-12T10:14:07.262Z,40.30
2022-11-12T10:15:07.526Z,42.30
2022-11-12T10:16:07.813Z,44.80
2022-11-12T10:17:08.137Z,43.90
2022-11-12T10:18:08.455Z,44.50
2022-11-12T10:19:08.738Z,47.70
2022-11-12T10:20:08.952Z,46.80
2022-11-12T10:21:09.233Z,44.90
2022-11-12T10:22:10.081Z,45.50
2022-11-12T10:23:09.771Z,43.10
2022-11-12T10:24:10.090Z,43.60
2022-11-12T10:25:10.390Z,44.00
2022-11-12T10:26:10.641Z,44.20
2022-11-12T10:27:11.266Z,44.40
2022-11-12T10:28:11.245Z,50.10
2022-11-12T10:29:11.488Z,47.70
2022-11-12T10:30:11.727Z,50.20
2022-11-12T10:31:12.072Z,45.80
2022-11-12T10:32:12.307Z,44.90
2022-11-12T10:33:12.621Z,40.00
2022-11-12T10:34:13.197Z,35.60
2022-11-12T10:35:13.167Z,41.40
2022-11-12T10:36:14.190Z,46.30
2022-11-12T10:37:13.753Z,48.40
2022-11-12T10:38:14.199Z,45.50
2022-11-12T10:39:14.328Z,42.10
2022-11-12T10:40:14.577Z,41.40
2022-11-12T10:41:15.762Z,39.40
2022-11-12T10:42:16.970Z,35.80
2022-11-12T10:43:15.469Z,37.50
2022-11-12T10:44:15.828Z,35.80
2022-11-12T10:45:16.042Z,37.20
2022-11-12T10:46:16.285Z,38.80
2022-11-12T10:47:16.571Z,39.40
2022-11-12T10:48:16.918Z,39.40
2022-11-12T10:49:17.160Z,36.70
2022-11-12T10:50:17.514Z,38.20
2022-11-12T10:51:17.676Z,39.40
2022-11-12T10:52:18.005Z,39.00
2022-11-12T10:53:18.233Z,38.90
2022-11-12T10:54:18.470Z,40.80
2022-11-12T10:55:18.746Z,40.40
2022-11-12T10:56:19.043Z,39.00
2022-11-12T10:57:19.358Z,37.20
2022-11-12T10:58:19.640Z,39.50
2022-11-12T10:59:19.918Z,33.80
2022-11-12T11:00:20.244Z,36.80
2022-11-12T11:01:20.649Z,38.30
2022-11-12T11:02:20.781Z,38.50
2022-11-12T11:03:21.064Z,38.30
2022-11-12T11:04:21.245Z,33.10
2022-11-12T11:05:21.621Z,36.90
2022-11-12T11:06:21.847Z,34.20
2022-11-12T11:07:22.544Z,31.70
2022-11-12T11:08:22.463Z,35.70
2022-11-12T11:09:22.757Z,32.80
2022-11-12T11:10:22.993Z,32.20
2022-11-12T11:11:23.298Z,30.60
2022-11-12T11:12:23.546Z,32.10
2022-11-12T11:13:23.867Z,32.80
2022-11-12T11:14:24.068Z,31.50
2022-11-12T11:15:24.310Z,33.60
2022-11-12T11:16:24.578Z,31.70
2022-11-12T11:17:24.832Z,31.80
2022-11-12T11:18:25.471Z,29.70
2022-11-12T11:19:25.606Z,30.60
2022-11-12T11:20:25.702Z,31.30
2022-11-12T11:21:25.916Z,30.10
2022-11-12T11:22:26.231Z,32.30
2022-11-12T11:23:26.530Z,30.50
2022-11-12T11:24:27.724Z,33.90
2022-11-12T11:25:26.997Z,32.80
2022-11-12T11:26:27.258Z,34.00
2022-11-12T11:27:27.587Z,32.90
2022-11-12T11:28:28.112Z,33.80
2022-11-12T11:29:28.023Z,33.10
2022-11-12T11:30:28.316Z,33.20
2022-11-12T11:31:28.590Z,31.10
2022-11-12T11:32:32.085Z,32.50
2022-11-12T11:33:30.159Z,35.80
2022-11-12T11:34:29.421Z,33.70
2022-11-12T11:35:29.683Z,32.80
2022-11-12T11:36:29.972Z,34.50
2022-11-12T11:37:30.252Z,32.10
2022-11-12T11:38:30.530Z,37.00
2022-11-12T11:39:30.773Z,30.10
2022-11-12T11:40:31.092Z,32.50
2022-11-12T11:41:31.315Z,30.90
2022-11-12T11:42:31.556Z,32.60
2022-11-12T11:43:31.913Z,30.50
2022-11-12T11:44:32.393Z,30.60
2022-11-12T11:45:32.428Z,32.70
2022-11-12T11:46:32.706Z,35.00
2022-11-12T11:47:50.417Z,36.80
2022-11-12T11:48:34.294Z,34.60
2022-11-12T11:49:33.714Z,30.70
2022-11-12T11:50:33.793Z,33.40
2022-11-12T11:51:34.193Z,31.20
2022-11-12T11:52:34.387Z,33.10
2022-11-12T11:53:34.667Z,34.50
2022-11-12T11:54:35.099Z,36.20
2022-11-12T11:55:35.183Z,35.10
2022-11-12T11:56:35.785Z,34.40
2022-11-12T11:57:35.767Z,45.10
2022-11-12T11:58:36.315Z,32.90
2022-11-12T11:59:36.281Z,35.00
2022-11-12T12:00:36.634Z,31.20
2022-11-12T12:01:36.989Z,34.50
2022-11-12T12:02:37.203Z,39.00
2022-11-12T12:03:37.483Z,34.10
2022-11-12T12:04:37.723Z,33.70
2022-11-12T12:05:37.960Z,46.90
2022-11-12T12:06:38.274Z,58.40
2022-11-12T12:07:38.471Z,32.70
2022-11-12T12:08:38.757Z,34.70
2022-11-12T12:09:39.029Z,33.80
2022-11-12T12:11:06.386Z,31.20
2022-11-12T12:11:40.619Z,35.30
2022-11-12T12:12:39.946Z,29.00
2022-11-12T12:13:40.277Z,29.00
2022-11-12T12:14:40.615Z,29.80
2022-11-12T12:15:40.735Z,30.60
2022-11-12T12:16:41.007Z,31.20
2022-11-12T12:17:41.323Z,33.30
2022-11-12T12:18:41.558Z,32.40
2022-11-12T12:19:41.862Z,32.60
2022-11-12T12:20:42.297Z,31.60
2022-11-12T12:21:42.441Z,34.60
2022-11-12T12:22:42.723Z,35.00
2022-11-12T12:23:42.971Z,36.80
2022-11-12T12:24:43.226Z,36.80
2022-11-12T12:25:43.491Z,38.40
2022-11-12T12:26:43.726Z,39.30
2022-11-12T12:27:43.996Z,39.00
2022-11-12T12:28:44.308Z,39.50
2022-11-12T12:29:44.530Z,38.30
2022-11-12T12:30:44.808Z,37.20
2022-11-12T12:31:45.051Z,39.10
2022-11-12T12:32:45.320Z,38.70
2022-11-12T12:33:45.596Z,36.40
2022-11-12T12:34:45.858Z,35.80
2022-11-12T12:35:46.155Z,34.70
2022-11-12T12:36:46.430Z,36.30
2022-11-12T12:37:46.682Z,35.60
2022-11-12T12:38:46.943Z,34.40
2022-11-12T12:39:48.224Z,39.10
2022-11-12T12:40:47.521Z,38.80
2022-11-12T12:41:47.803Z,34.90
2022-11-12T12:42:48.027Z,38.20
2022-11-12T12:43:48.331Z,38.40
2022-11-12T12:44:48.644Z,36.10
2022-11-12T12:45:48.855Z,38.10
2022-11-12T12:46:49.100Z,38.50
2022-11-12T12:47:49.352Z,40.20
2022-11-12T12:48:49.614Z,42.20
2022-11-12T12:49:49.976Z,41.10
2022-11-12T12:50:50.188Z,39.50
2022-11-12T12:51:55.637Z,39.60